Thursday, November 23, 2017, 2:13 AM EST
Back to Local

KDAW, Skyhaven Airport

Location: Rochester, NH, United States Lat: 43.283
Local Time: 2:13 AM EST ( 7:13 GMT) Lon: -70.917
Time Zone: US/Eastern Elev: 321 ft

Show me the last for .
Show Decoded

2017-11-23 01:51 METAR KDAW 230651Z AUTO 30008KT 10SM CLR 00/M06 A2991 RMK AO2 SLP128 T00001056 =
2017-11-23 00:51 METAR KDAW 230551Z AUTO 29006G21KT 10SM CLR 01/M04 A2990 RMK AO2 SLP123
                 T00061044 10039 20006 53019 =
2017-11-22 23:51 METAR KDAW 230451Z AUTO 30012G19KT 10SM CLR 01/M03 A2988 RMK AO2 SLP116
                 T00111033 400610011 =
2017-11-22 22:51 METAR KDAW 230351Z AUTO 30010G17KT 10SM CLR 02/M03 A2986 RMK AO2 SLP110
                 T00171028 =
2017-11-22 21:51 METAR KDAW 230251Z AUTO 31013G23KT 10SM CLR 02/M02 A2984 RMK AO2 SLP104
                 T00221022 51007 =
2017-11-22 20:51 METAR KDAW 230151Z AUTO 30016G26KT 10SM CLR 03/M01 A2983 RMK AO2 PK WND
                 31026/0147 SLP102 T00281011 =
2017-11-22 19:51 METAR KDAW 230051Z AUTO 30014G20KT 10SM CLR 03/M01 A2983 RMK AO2 SLP101
                 T00281006 =
2017-11-22 18:51 METAR KDAW 222351Z AUTO 30014G21KT 10SM OVC043 04/01 A2982 RMK AO2 SLP097 60016
                 T00390011 10061 20039 53006 =
2017-11-22 18:14 METAR KDAW 222314Z AUTO 31013KT 10SM SCT023 OVC035 04/03 A2981 RMK AO2 T00390028
                 =
2017-11-22 17:51 METAR KDAW 222251Z AUTO 31011KT 10SM BKN021 OVC027 04/03 A2981 RMK AO2 RAE27
                 SLP093 P0001 T00440033 =
2017-11-22 17:31 METAR KDAW 222231Z AUTO 31011KT 10SM SCT022 BKN026 OVC049 04/04 A2980 RMK AO2
                 RAE27 P0001 T00440039 =
2017-11-22 16:51 METAR KDAW 222151Z AUTO 31012KT 10SM -RA OVC050 05/04 A2980 RMK AO2 SLP091 P0003
                 T00500044 =
2017-11-22 15:51 METAR KDAW 222051Z AUTO 31008KT 9SM -RA OVC045 06/06 A2980 RMK AO2 SLP090 P0003
                 60012 T00560056 55008 =
2017-11-22 14:51 METAR KDAW 221951Z AUTO 31006KT 7SM -RA SCT004 OVC039 06/06 A2980 RMK AO2 SLP090
                 P0001 T00610061 =
2017-11-22 14:21 METAR KDAW 221921Z AUTO 34006KT 6SM -RA BR SCT002 OVC034 06/06 A2979 RMK AO2
                 P0001 T00560056 =
2017-11-22 13:51 METAR KDAW 221851Z AUTO 33005KT 5SM -RA BR BKN002 OVC035 06/06 A2979 RMK AO2
                 SLP088 P0008 T00560056 =
2017-11-22 13:32 METAR KDAW 221832Z AUTO 33005KT 4SM -RA BR BKN002 BKN016 OVC027 06/06 A2979 RMK
                 AO2 P0008 T00560056 =
2017-11-22 13:07 METAR KDAW 221807Z AUTO 34006KT 3SM RA BR FEW003 BKN015 OVC020 06/06 A2981 RMK
                 AO2 P0005 T00560056 =
2017-11-22 12:51 METAR KDAW 221751Z AUTO 33007KT 2 1/2SM RA BR FEW003 BKN011 OVC020 06/06 A2982
                 RMK AO2 SLP098 P0009 60020 T00560056 10056 20017 58022 =
2017-11-22 12:47 METAR KDAW 221747Z AUTO 32007KT 2 1/2SM RA BR FEW003 OVC011 06/06 A2982 RMK AO2
                 P0008 =
2017-11-22 11:51 METAR KDAW 221651Z AUTO 31007KT 4SM -RA BR OVC005 04/04 A2985 RMK AO2 SLP106
                 P0007 T00440044 =
2017-11-22 10:51 METAR KDAW 221551Z AUTO 32007KT 6SM -RA BR OVC005 04/04 A2988 RMK AO2 SLP117
                 P0002 T00390039 =
2017-11-22 10:14 METAR KDAW 221514Z AUTO 00000KT 6SM -RA BR BKN008 OVC070 04/04 A2988 RMK AO2
                 P0001 T00390039 =
2017-11-22 10:05 METAR KDAW 221505Z AUTO 31004KT 6SM -RA BR SCT008 OVC070 03/03 A2988 RMK AO2
                 P0001 T00330033 =
2017-11-22 09:51 METAR KDAW 221451Z AUTO 35003KT 7SM -RA BKN060 OVC070 04/04 A2989 RMK AO2 SLP120
                 P0001 60002 T00390039 58019 =
2017-11-22 08:51 METAR KDAW 221351Z AUTO 00000KT 8SM -RA OVC060 03/03 A2993 RMK AO2 RAB14 SLP133
                 P0001 T00330028 =
2017-11-22 07:51 METAR KDAW 221251Z AUTO 00000KT 10SM SCT110 02/02 A2993 RMK AO2 SLP134 T00220017
                 =
2017-11-22 06:51 METAR KDAW 221151Z AUTO 00000KT 10SM BKN110 03/02 A2994 RMK AO2 SLP139 T00280017
                 10050 20011 58010 =
2017-11-22 05:51 METAR KDAW 221051Z AUTO 33003KT 10SM CLR 01/01 A2996 RMK AO2 SLP146 T00110011 =
2017-11-22 04:51 METAR KDAW 220951Z AUTO 00000KT 10SM CLR 03/02 A2997 RMK AO2 SLP147 T00280017 =
2017-11-22 03:51 METAR KDAW 220851Z AUTO 00000KT 10SM CLR 03/02 A2998 RMK AO2 SLP149 T00330022
                 58001 =
2017-11-22 02:51 METAR KDAW 220751Z AUTO 00000KT 10SM CLR 03/02 A2997 RMK AO2 SLP149 T00330017 =

Support USWX by starting your Amazon purchase here.